createdAt,value
2022-12-25T00:02:01.953Z,100549.28
2022-12-25T00:04:28.560Z,100547.56
2022-12-25T00:06:55.722Z,100536.22
2022-12-25T00:09:22.282Z,100527.44
2022-12-25T00:11:48.814Z,100528.34
2022-12-25T00:14:15.367Z,100520.44
2022-12-25T00:16:42.038Z,100511.53
2022-12-25T00:19:08.665Z,100505.19
2022-12-25T00:21:35.269Z,100503.16
2022-12-25T00:24:01.864Z,100496.78
2022-12-25T00:26:28.591Z,100494.91
2022-12-25T00:28:56.767Z,100499.06
2022-12-25T00:31:24.552Z,100490.25
2022-12-25T00:33:52.499Z,100502.38
2022-12-25T00:36:21.189Z,100482.50
2022-12-25T00:38:47.859Z,100484.41
2022-12-25T00:41:16.896Z,100498.19
2022-12-25T00:43:43.743Z,100495.50
2022-12-25T00:46:13.044Z,100496.53
2022-12-25T00:48:40.629Z,100510.53
2022-12-25T00:51:11.389Z,100521.22
2022-12-25T00:53:37.993Z,100519.72
2022-12-25T00:56:07.180Z,100493.03
2022-12-25T00:58:34.635Z,100518.75
2022-12-25T01:01:01.524Z,100510.00
2022-12-25T01:03:28.690Z,100504.84
2022-12-25T01:05:57.833Z,100484.97
2022-12-25T01:08:24.979Z,100497.56
2022-12-25T01:10:58.493Z,100498.47
2022-12-25T01:13:25.672Z,100499.50
2022-12-25T01:15:52.765Z,100504.03
2022-12-25T01:18:20.217Z,100506.72
2022-12-25T01:20:46.988Z,100508.56
2022-12-25T01:23:14.308Z,100517.53
2022-12-25T01:25:41.440Z,100522.81
2022-12-25T01:28:08.267Z,100515.09
2022-12-25T01:30:35.598Z,100529.88
2022-12-25T01:33:02.109Z,100542.97
2022-12-25T01:35:28.751Z,100536.72
2022-12-25T01:37:55.477Z,100528.50
2022-12-25T01:40:22.064Z,100530.03
2022-12-25T01:42:48.607Z,100518.53
2022-12-25T01:45:38.778Z,100518.69
2022-12-25T01:48:09.899Z,100531.31
2022-12-25T01:50:40.209Z,100529.00
2022-12-25T01:53:07.323Z,100535.38
2022-12-25T01:55:36.254Z,100505.84
2022-12-25T01:58:03.306Z,100517.97
2022-12-25T02:00:30.021Z,100517.41
2022-12-25T02:02:58.250Z,100513.81
2022-12-25T02:05:32.065Z,100508.47
2022-12-25T02:08:02.684Z,100514.50
2022-12-25T02:10:29.013Z,100514.56
2022-12-25T02:12:55.728Z,100513.75
2022-12-25T02:15:28.805Z,100515.69
2022-12-25T02:18:01.643Z,100518.31
2022-12-25T02:20:56.197Z,100484.59
2022-12-25T02:23:42.064Z,100508.69
2022-12-25T02:26:55.389Z,100506.94
2022-12-25T02:29:42.813Z,100494.88
2022-12-25T02:32:27.806Z,100501.91
2022-12-25T02:35:03.600Z,100496.91
2022-12-25T02:37:39.636Z,100494.44
2022-12-25T02:40:15.980Z,100508.09
2022-12-25T02:43:14.988Z,100505.28
2022-12-25T02:46:23.712Z,100501.56
2022-12-25T02:49:19.482Z,100500.38
2022-12-25T02:52:09.560Z,100495.78
2022-12-25T02:55:08.903Z,100464.22
2022-12-25T02:58:00.799Z,100489.22
2022-12-25T03:00:46.070Z,100478.81
2022-12-25T03:03:35.101Z,100485.88
2022-12-25T03:06:22.516Z,100490.56
2022-12-25T03:08:53.448Z,100481.19
2022-12-25T03:11:31.889Z,100483.06
2022-12-25T03:14:25.994Z,100473.75
2022-12-25T03:16:56.479Z,100493.06
2022-12-25T03:19:43.800Z,100498.44
2022-12-25T03:22:36.591Z,100508.09
2022-12-25T03:25:22.557Z,100502.00
2022-12-25T03:27:53.034Z,100496.06
2022-12-25T03:30:38.916Z,100504.59
2022-12-25T03:33:47.404Z,100514.19
2022-12-25T03:36:31.354Z,100505.44
2022-12-25T03:39:34.508Z,100507.97
2022-12-25T03:42:23.928Z,100499.94
2022-12-25T03:45:15.302Z,100500.81
2022-12-25T03:48:06.658Z,100470.56
2022-12-25T03:51:01.434Z,100493.06
2022-12-25T03:53:50.544Z,100482.38
2022-12-25T03:56:36.993Z,100477.22
2022-12-25T03:59:24.185Z,100449.44
2022-12-25T04:02:10.679Z,100465.78
2022-12-25T04:04:56.213Z,100466.81
2022-12-25T04:07:41.500Z,100441.66
2022-12-25T04:10:27.673Z,100467.63
2022-12-25T04:13:12.965Z,100466.81
2022-12-25T04:15:58.442Z,100476.56
2022-12-25T04:18:43.980Z,100461.75
2022-12-25T04:21:29.488Z,100455.44
2022-12-25T04:24:14.556Z,100456.47
2022-12-25T04:26:59.663Z,100454.78
2022-12-25T04:29:45.153Z,100465.28
2022-12-25T04:32:30.160Z,100439.28
2022-12-25T04:35:15.750Z,100455.53
2022-12-25T04:37:42.358Z,100434.06
2022-12-25T04:40:09.349Z,100465.25
2022-12-25T04:42:35.903Z,100459.03
2022-12-25T04:45:02.386Z,100455.38
2022-12-25T04:47:28.915Z,100455.44
2022-12-25T04:49:55.602Z,100451.19
2022-12-25T04:52:22.139Z,100457.16
2022-12-25T04:54:48.727Z,100461.59
2022-12-25T04:57:16.488Z,100458.94
2022-12-25T04:59:43.017Z,100455.28
2022-12-25T05:02:09.784Z,100439.00
2022-12-25T05:04:36.474Z,100454.47
2022-12-25T05:07:03.049Z,100424.13
2022-12-25T05:09:29.702Z,100448.16
2022-12-25T05:11:56.243Z,100452.63
2022-12-25T05:14:22.736Z,100442.34
2022-12-25T05:16:49.351Z,100457.91
2022-12-25T05:19:15.868Z,100456.25
2022-12-25T05:21:42.493Z,100466.75
2022-12-25T05:24:09.014Z,100472.97
2022-12-25T05:26:35.549Z,100465.91
2022-12-25T05:29:02.052Z,100462.41
2022-12-25T05:31:28.692Z,100455.34
2022-12-25T05:33:55.375Z,100460.50
2022-12-25T05:36:22.017Z,100463.84
2022-12-25T05:38:48.533Z,100457.56
2022-12-25T05:41:15.344Z,100453.00
2022-12-25T05:43:41.954Z,100454.69
2022-12-25T05:46:10.465Z,100453.75
2022-12-25T05:48:38.325Z,100451.22
2022-12-25T05:51:09.120Z,100448.75
2022-12-25T05:53:36.587Z,100449.50
2022-12-25T05:56:06.004Z,100436.56
2022-12-25T05:58:34.356Z,100440.00
2022-12-25T06:01:01.482Z,100434.09
2022-12-25T06:03:28.325Z,100436.31
2022-12-25T06:05:55.098Z,100440.56
2022-12-25T06:08:21.693Z,100439.63
2022-12-25T06:10:48.524Z,100437.91
2022-12-25T06:13:15.138Z,100439.69
2022-12-25T06:15:42.140Z,100434.56
2022-12-25T06:18:09.140Z,100440.06
2022-12-25T06:20:36.256Z,100433.13
2022-12-25T06:23:02.760Z,100430.59
2022-12-25T06:25:29.455Z,100401.34
2022-12-25T06:27:55.974Z,100422.91
2022-12-25T06:30:22.626Z,100419.50
2022-12-25T06:32:49.150Z,100384.84
2022-12-25T06:35:15.755Z,100403.50
2022-12-25T06:37:42.276Z,100413.03
2022-12-25T06:40:09.114Z,100394.97
2022-12-25T06:42:35.699Z,100418.47
2022-12-25T06:45:02.248Z,100407.25
2022-12-25T06:47:28.791Z,100408.06
2022-12-25T06:49:55.291Z,100416.91
2022-12-25T06:52:21.731Z,100399.63
2022-12-25T06:54:48.357Z,100413.28
2022-12-25T06:57:14.905Z,100411.63
2022-12-25T06:59:41.417Z,100413.19
2022-12-25T07:02:17.112Z,100386.53
2022-12-25T07:04:43.827Z,100416.69
2022-12-25T07:07:10.389Z,100408.06
2022-12-25T07:09:38.807Z,100415.13
2022-12-25T07:12:23.848Z,100430.97
2022-12-25T07:14:50.669Z,100418.75
2022-12-25T07:17:17.403Z,100416.97
2022-12-25T07:19:45.418Z,100414.22
2022-12-25T07:22:12.623Z,100422.78
2022-12-25T07:24:39.462Z,100417.03
2022-12-25T07:27:06.144Z,100421.31
2022-12-25T07:29:32.716Z,100412.72
2022-12-25T07:31:59.416Z,100416.22
2022-12-25T07:34:26.293Z,100411.84
2022-12-25T07:36:54.840Z,100407.44
2022-12-25T07:39:21.379Z,100403.88
2022-12-25T07:41:47.908Z,100395.03
2022-12-25T07:44:14.888Z,100378.63
2022-12-25T07:46:41.435Z,100393.94
2022-12-25T07:49:08.008Z,100400.69
2022-12-25T07:51:34.741Z,100393.13
2022-12-25T07:54:01.279Z,100397.25
2022-12-25T07:56:30.149Z,100411.25
2022-12-25T07:58:56.761Z,100409.94
2022-12-25T08:01:26.678Z,100375.25
2022-12-25T08:03:56.334Z,100382.13
2022-12-25T08:06:26.878Z,100393.78
2022-12-25T08:08:53.399Z,100393.84
2022-12-25T08:11:19.924Z,100411.38
2022-12-25T08:13:46.543Z,100400.06
2022-12-25T08:16:13.199Z,100388.50
2022-12-25T08:18:40.638Z,100372.44
2022-12-25T08:21:13.074Z,100367.84
2022-12-25T08:23:41.973Z,100349.94
2022-12-25T08:26:11.380Z,100329.25
2022-12-25T08:28:38.367Z,100336.56
2022-12-25T08:31:17.630Z,100340.75
2022-12-25T08:33:44.724Z,100351.19
2022-12-25T08:36:12.535Z,100370.63
2022-12-25T08:38:39.979Z,100369.75
2022-12-25T08:41:07.192Z,100384.75
2022-12-25T08:43:33.917Z,100381.66
2022-12-25T08:46:00.940Z,100372.06
2022-12-25T08:48:27.718Z,100355.41
2022-12-25T08:50:54.771Z,100343.00
2022-12-25T08:53:21.849Z,100328.00
2022-12-25T08:55:48.409Z,100334.09
2022-12-25T08:58:16.367Z,100343.78
2022-12-25T09:00:43.020Z,100357.00
2022-12-25T09:03:09.538Z,100351.31
2022-12-25T09:05:37.440Z,100362.38
2022-12-25T09:08:04.315Z,100372.13
2022-12-25T09:10:31.452Z,100389.66
2022-12-25T09:12:58.085Z,100386.03
2022-12-25T09:15:24.613Z,100385.88
2022-12-25T09:17:51.258Z,100395.47
2022-12-25T09:20:17.915Z,100398.84
2022-12-25T09:22:44.459Z,100392.75
2022-12-25T09:25:11.284Z,100380.63
2022-12-25T09:27:37.923Z,100378.22
2022-12-25T09:30:05.879Z,100360.44
2022-12-25T09:32:32.602Z,100374.97
2022-12-25T09:34:59.219Z,100373.13
2022-12-25T09:37:25.790Z,100360.22
2022-12-25T09:39:52.432Z,100369.69
2022-12-25T09:42:34.708Z,100373.06
2022-12-25T09:45:09.770Z,100375.63
2022-12-25T09:47:40.074Z,100369.38
2022-12-25T09:50:17.301Z,100360.41
2022-12-25T09:53:00.827Z,100354.88
2022-12-25T09:55:31.656Z,100356.47
2022-12-25T09:58:02.278Z,100358.06
2022-12-25T10:00:43.046Z,100356.94
2022-12-25T10:03:28.146Z,100350.59
2022-12-25T10:06:13.613Z,100332.69
2022-12-25T10:09:16.097Z,100326.91
2022-12-25T10:11:48.281Z,100304.38
2022-12-25T10:14:42.355Z,100303.75
2022-12-25T10:17:36.434Z,100290.13
2022-12-25T10:20:12.705Z,100282.81
2022-12-25T10:22:46.827Z,100274.53
2022-12-25T10:25:22.452Z,100268.09
2022-12-25T10:27:52.839Z,100254.50
2022-12-25T10:30:22.755Z,100292.25
2022-12-25T10:32:50.888Z,100295.53
2022-12-25T10:35:20.797Z,100311.19
2022-12-25T10:38:11.064Z,100303.81
2022-12-25T10:40:55.904Z,100296.50
2022-12-25T10:43:42.425Z,100286.22
2022-12-25T10:46:13.909Z,100288.88
2022-12-25T10:48:50.571Z,100271.06
2022-12-25T10:51:33.923Z,100271.38
2022-12-25T10:54:03.018Z,100254.13
2022-12-25T10:56:30.200Z,100272.94
2022-12-25T10:59:11.348Z,100269.28
2022-12-25T11:01:38.017Z,100262.88
2022-12-25T11:04:04.653Z,100272.47
2022-12-25T11:06:32.408Z,100261.69
2022-12-25T11:09:01.116Z,100257.19
2022-12-25T11:11:29.686Z,100243.78
2022-12-25T11:14:01.675Z,100270.22
2022-12-25T11:16:40.018Z,100266.13
2022-12-25T11:19:26.859Z,100247.38
2022-12-25T11:21:56.751Z,100251.81
2022-12-25T11:24:28.149Z,100253.66
2022-12-25T11:26:57.839Z,100249.31
2022-12-25T11:29:42.325Z,100249.16
2022-12-25T11:32:34.405Z,100229.66
2022-12-25T11:35:02.567Z,100249.84
2022-12-25T11:37:48.782Z,100242.13
2022-12-25T11:40:30.840Z,100246.56
2022-12-25T11:43:13.171Z,100241.03
2022-12-25T11:45:48.966Z,100237.53
2022-12-25T11:48:26.427Z,100234.81
2022-12-25T11:50:59.722Z,100225.47
2022-12-25T11:53:51.635Z,100218.16
2022-12-25T11:56:28.471Z,100214.72
2022-12-25T11:59:02.405Z,100217.97
2022-12-25T12:01:47.852Z,100206.34
2022-12-25T12:04:41.973Z,100194.03
2022-12-25T12:07:27.035Z,100183.22
2022-12-25T12:10:18.399Z,100179.47
2022-12-25T12:12:50.598Z,100167.50
2022-12-25T12:15:36.247Z,100135.47
2022-12-25T12:18:19.282Z,100132.66
2022-12-25T12:20:57.104Z,100146.63
2022-12-25T12:23:23.824Z,100152.00
2022-12-25T12:25:50.861Z,100148.22
2022-12-25T12:28:26.354Z,100149.59
2022-12-25T12:31:01.557Z,100152.03
2022-12-25T12:33:34.828Z,100155.16
2022-12-25T12:36:03.299Z,100162.91
2022-12-25T12:38:32.650Z,100160.75
2022-12-25T12:41:02.094Z,100123.25
2022-12-25T12:43:34.406Z,100148.41
2022-12-25T12:46:30.200Z,100138.00
2022-12-25T12:49:11.618Z,100141.44
2022-12-25T12:51:40.592Z,100152.59
2022-12-25T12:54:23.662Z,100155.81
2022-12-25T12:57:04.508Z,100160.31
2022-12-25T12:59:40.066Z,100158.47
2022-12-25T13:02:37.556Z,100148.22
2022-12-25T13:05:13.840Z,100142.38
2022-12-25T13:08:02.821Z,100147.09
2022-12-25T13:10:34.103Z,100116.22
2022-12-25T13:13:05.216Z,100121.97
2022-12-25T13:15:34.801Z,100103.59
2022-12-25T13:18:05.669Z,100115.97
2022-12-25T13:20:47.568Z,100127.69
2022-12-25T13:23:32.918Z,100138.53
2022-12-25T13:26:04.322Z,100145.97
2022-12-25T13:28:33.460Z,100132.91
2022-12-25T13:31:14.095Z,100141.47
2022-12-25T13:33:41.752Z,100152.16
2022-12-25T13:36:13.766Z,100141.69
2022-12-25T13:38:49.285Z,100109.47
2022-12-25T13:41:40.228Z,100118.84
2022-12-25T13:44:21.517Z,100111.50
2022-12-25T13:46:48.641Z,100111.28
2022-12-25T13:49:21.417Z,100102.38
2022-12-25T13:51:48.964Z,100096.22
2022-12-25T13:54:17.222Z,100089.03
2022-12-25T13:56:51.736Z,100055.69
2022-12-25T13:59:22.014Z,100095.38
2022-12-25T14:01:50.333Z,100109.00
2022-12-25T14:04:23.147Z,100107.09
2022-12-25T14:06:51.355Z,100112.47
2022-12-25T14:09:19.200Z,100090.66
2022-12-25T14:11:51.154Z,100109.13
2022-12-25T14:14:25.863Z,100110.34
2022-12-25T14:16:56.878Z,100112.19
2022-12-25T14:19:28.078Z,100115.78
2022-12-25T14:22:02.695Z,100121.09
2022-12-25T14:24:31.246Z,100125.53
2022-12-25T14:27:15.332Z,100114.31
2022-12-25T14:29:44.678Z,100116.25
2022-12-25T14:32:17.367Z,100119.16
2022-12-25T14:34:47.277Z,100097.91
2022-12-25T14:37:22.540Z,100109.94
2022-12-25T14:40:01.155Z,100105.50
2022-12-25T14:42:32.991Z,100109.94
2022-12-25T14:45:25.663Z,100121.47
2022-12-25T14:47:59.086Z,100130.59
2022-12-25T14:50:38.624Z,100127.47
2022-12-25T14:53:16.902Z,100135.56
2022-12-25T14:55:48.466Z,100120.94
2022-12-25T14:58:28.013Z,100111.13
2022-12-25T15:00:57.608Z,100115.56
2022-12-25T15:03:35.443Z,100110.44
2022-12-25T15:06:07.448Z,100119.44
2022-12-25T15:08:34.894Z,100113.38
2022-12-25T15:11:02.889Z,100091.78
2022-12-25T15:13:31.217Z,100102.25
2022-12-25T15:16:02.801Z,100094.72
2022-12-25T15:18:34.070Z,100078.31
2022-12-25T15:21:01.561Z,100104.44
2022-12-25T15:23:28.536Z,100101.88
2022-12-25T15:25:55.114Z,100110.91
2022-12-25T15:28:21.630Z,100118.84
2022-12-25T15:30:49.820Z,100103.91
2022-12-25T15:33:18.475Z,100107.50
2022-12-25T15:35:45.521Z,100097.06
2022-12-25T15:38:13.579Z,100107.78
2022-12-25T15:40:41.436Z,100098.19
2022-12-25T15:43:38.839Z,100092.06
2022-12-25T15:45:58.582Z,100082.44
2022-12-25T15:48:25.146Z,100096.59
2022-12-25T15:50:51.661Z,100099.06
2022-12-25T15:53:18.236Z,100103.59
2022-12-25T15:55:44.816Z,100107.16
2022-12-25T15:58:13.133Z,100113.31
2022-12-25T16:00:39.688Z,100068.69
2022-12-25T16:03:06.326Z,100109.72
2022-12-25T16:05:32.965Z,100105.53
2022-12-25T16:07:59.660Z,100109.16
2022-12-25T16:10:26.264Z,100110.31
2022-12-25T16:12:52.815Z,100114.47
2022-12-25T16:15:19.332Z,100109.25
2022-12-25T16:17:45.943Z,100096.66
2022-12-25T16:20:12.731Z,100082.50
2022-12-25T16:22:42.405Z,100085.22
2022-12-25T16:25:13.888Z,100089.66
2022-12-25T16:27:40.515Z,100079.16
2022-12-25T16:30:07.969Z,100080.06
2022-12-25T16:32:34.604Z,100062.47
2022-12-25T16:35:01.183Z,100068.25
2022-12-25T16:37:28.519Z,100063.81
2022-12-25T16:39:55.050Z,100070.91
2022-12-25T16:42:21.949Z,100071.81
2022-12-25T16:44:48.442Z,100076.25
2022-12-25T16:47:15.555Z,100080.81
2022-12-25T16:49:42.078Z,100086.13
2022-12-25T16:52:08.723Z,100083.41
2022-12-25T16:54:35.340Z,100059.41
2022-12-25T16:57:02.004Z,100087.81
2022-12-25T16:59:32.945Z,100093.41
2022-12-25T17:01:59.607Z,100096.25
2022-12-25T17:04:27.805Z,100109.00
2022-12-25T17:06:54.289Z,100108.41
2022-12-25T17:09:20.840Z,100112.09
2022-12-25T17:11:47.335Z,100126.28
2022-12-25T17:14:13.907Z,100132.38
2022-12-25T17:16:40.707Z,100122.56
2022-12-25T17:19:15.452Z,100095.06
2022-12-25T17:21:41.999Z,100109.50
2022-12-25T17:24:09.608Z,100110.38
2022-12-25T17:26:36.203Z,100110.13
2022-12-25T17:29:03.807Z,100120.63
2022-12-25T17:31:30.512Z,100123.56
2022-12-25T17:33:57.758Z,100121.94
2022-12-25T17:36:25.025Z,100118.28
2022-12-25T17:38:51.659Z,100123.41
2022-12-25T17:41:19.491Z,100120.88
2022-12-25T17:43:47.238Z,100101.34
2022-12-25T17:46:19.583Z,100081.50
2022-12-25T17:48:47.073Z,100098.28
2022-12-25T17:51:17.162Z,100088.50
2022-12-25T17:53:46.546Z,100089.19
2022-12-25T17:56:14.389Z,100069.91
2022-12-25T17:58:40.962Z,100070.00
2022-12-25T18:01:13.500Z,100069.75
2022-12-25T18:03:40.733Z,100083.75
2022-12-25T18:06:09.711Z,100079.31
2022-12-25T18:08:39.499Z,100064.00
2022-12-25T18:11:09.188Z,100104.03
2022-12-25T18:13:35.811Z,100109.25
2022-12-25T18:16:04.056Z,100098.63
2022-12-25T18:18:30.725Z,100092.34
2022-12-25T18:20:57.991Z,100087.81
2022-12-25T18:23:24.873Z,100084.13
2022-12-25T18:25:51.520Z,100083.16
2022-12-25T18:28:18.321Z,100078.50
2022-12-25T18:30:45.846Z,100048.25
2022-12-25T18:33:12.985Z,100076.50
2022-12-25T18:35:41.513Z,100078.75
2022-12-25T18:38:09.249Z,100071.31
2022-12-25T18:40:48.367Z,100047.88
2022-12-25T18:43:15.423Z,100036.84
2022-12-25T18:45:42.701Z,100043.97
2022-12-25T18:48:10.546Z,100047.91
2022-12-25T18:50:39.933Z,100066.22
2022-12-25T18:53:07.087Z,100072.38
2022-12-25T18:55:33.705Z,100074.88
2022-12-25T18:58:00.268Z,100067.78
2022-12-25T19:00:28.144Z,100061.63
2022-12-25T19:02:59.004Z,100077.19
2022-12-25T19:05:26.112Z,100071.09
2022-12-25T19:07:52.727Z,100061.31
2022-12-25T19:10:19.442Z,100067.38
2022-12-25T19:12:46.003Z,100055.22
2022-12-25T19:15:12.644Z,100071.88
2022-12-25T19:17:39.159Z,100069.31
2022-12-25T19:20:06.146Z,100047.84
2022-12-25T19:22:32.723Z,100064.09
2022-12-25T19:24:59.322Z,100036.41
2022-12-25T19:27:25.889Z,100053.06
2022-12-25T19:29:52.486Z,100064.44
2022-12-25T19:32:19.082Z,100062.88
2022-12-25T19:34:45.710Z,100060.53
2022-12-25T19:37:12.295Z,100074.53
2022-12-25T19:39:39.858Z,100087.84
2022-12-25T19:42:06.337Z,100083.47
2022-12-25T19:44:32.831Z,100089.94
2022-12-25T19:46:59.328Z,100089.88
2022-12-25T19:49:25.825Z,100078.56
2022-12-25T19:51:52.565Z,100081.19
2022-12-25T19:54:20.719Z,100072.47
2022-12-25T19:56:48.869Z,100076.78
2022-12-25T19:59:15.654Z,100074.00
2022-12-25T20:01:42.711Z,100055.97
2022-12-25T20:04:10.364Z,100071.97
2022-12-25T20:06:39.875Z,100048.81
2022-12-25T20:09:12.981Z,100059.19
2022-12-25T20:11:40.238Z,100061.06
2022-12-25T20:14:07.738Z,100066.00
2022-12-25T20:16:37.015Z,100065.13
2022-12-25T20:19:03.793Z,100072.28
2022-12-25T20:21:30.743Z,100075.03
2022-12-25T20:23:57.514Z,100081.16
2022-12-25T20:26:26.839Z,100085.59
2022-12-25T20:28:53.617Z,100079.31
2022-12-25T20:31:23.929Z,100075.66
2022-12-25T20:33:53.275Z,100054.22
2022-12-25T20:36:19.892Z,100077.34
2022-12-25T20:38:49.755Z,100085.03
2022-12-25T20:41:28.457Z,100092.06
2022-12-25T20:43:55.790Z,100092.75
2022-12-25T20:46:22.540Z,100093.53
2022-12-25T20:48:49.269Z,100088.25
2022-12-25T20:51:21.138Z,100077.41
2022-12-25T20:53:48.543Z,100084.09
2022-12-25T20:56:17.180Z,100086.75
2022-12-25T20:58:46.017Z,100084.97
2022-12-25T21:01:15.860Z,100090.34
2022-12-25T21:03:43.469Z,100100.06
2022-12-25T21:06:12.070Z,100107.16
2022-12-25T21:08:39.067Z,100120.47
2022-12-25T21:11:06.113Z,100116.97
2022-12-25T21:13:35.666Z,100111.16
2022-12-25T21:16:05.543Z,100097.28
2022-12-25T21:18:32.051Z,100114.16
2022-12-25T21:20:59.492Z,100116.66
2022-12-25T21:23:29.019Z,100120.25
2022-12-25T21:25:55.541Z,100126.91
2022-12-25T21:28:22.734Z,100125.13
2022-12-25T21:30:49.330Z,100122.66
2022-12-25T21:33:35.117Z,100132.13
2022-12-25T21:36:11.743Z,100112.22
2022-12-25T21:38:38.917Z,100124.03
2022-12-25T21:41:07.863Z,100139.78
2022-12-25T21:43:35.781Z,100115.50
2022-12-25T21:46:04.166Z,100141.41
2022-12-25T21:48:31.168Z,100128.56
2022-12-25T21:51:24.816Z,100135.50
2022-12-25T21:53:51.468Z,100132.31
2022-12-25T21:56:18.230Z,100149.28
2022-12-25T21:58:44.726Z,100119.81
2022-12-25T22:01:11.769Z,100137.56
2022-12-25T22:03:38.433Z,100143.72
2022-12-25T22:06:24.607Z,100141.78
2022-12-25T22:08:51.195Z,100155.97
2022-12-25T22:11:36.284Z,100130.41
2022-12-25T22:14:51.297Z,100142.28
2022-12-25T22:17:27.581Z,100161.09
2022-12-25T22:19:54.297Z,100139.75
2022-12-25T22:22:23.597Z,100140.63
2022-12-25T22:24:51.854Z,100117.22
2022-12-25T22:27:18.771Z,100141.25
2022-12-25T22:29:45.880Z,100143.88
2022-12-25T22:32:12.630Z,100138.66
2022-12-25T22:34:39.525Z,100143.03
2022-12-25T22:37:07.363Z,100125.72
2022-12-25T22:39:34.180Z,100134.88
2022-12-25T22:42:01.533Z,100128.66
2022-12-25T22:44:30.979Z,100133.97
2022-12-25T22:46:57.554Z,100140.81
2022-12-25T22:49:25.479Z,100149.38
2022-12-25T22:51:52.798Z,100153.84
2022-12-25T22:54:20.981Z,100137.22
2022-12-25T22:56:49.446Z,100152.13
2022-12-25T22:59:18.945Z,100139.56
2022-12-25T23:01:46.293Z,100129.91
2022-12-25T23:04:13.066Z,100114.81
2022-12-25T23:06:40.053Z,100138.09
2022-12-25T23:09:08.346Z,100154.84
2022-12-25T23:11:38.722Z,100158.34
2022-12-25T23:14:23.903Z,100155.00
2022-12-25T23:16:50.475Z,100159.13
2022-12-25T23:19:36.187Z,100150.41
2022-12-25T23:22:21.542Z,100136.00
2022-12-25T23:25:07.076Z,100152.97
2022-12-25T23:27:33.671Z,100167.84
2022-12-25T23:30:00.583Z,100162.63
2022-12-25T23:32:28.085Z,100148.13
2022-12-25T23:34:55.900Z,100164.34
2022-12-25T23:37:22.460Z,100141.13
2022-12-25T23:39:50.156Z,100162.47
2022-12-25T23:42:17.346Z,100160.59
2022-12-25T23:44:44.659Z,100141.16
2022-12-25T23:47:11.344Z,100149.22
2022-12-25T23:49:38.106Z,100149.38
2022-12-25T23:52:04.865Z,100154.06
2022-12-25T23:54:32.390Z,100160.91
2022-12-25T23:56:59.811Z,100166.22
2022-12-25T23:59:28.440Z,100147.59
